sensor_id;sensor_type;location;lat;lon;timestamp;P1;durP1;ratioP1;P2;durP2;ratioP2
32146;SDS011;32190;49.112;8.598;2023-11-19T00:02:21;0.20;;;0.20;;
32146;SDS011;32190;49.112;8.598;2023-11-19T00:08:12;0.30;;;0.30;;
32146;SDS011;32190;49.112;8.598;2023-11-19T00:14:02;0.20;;;0.20;;
32146;SDS011;32190;49.112;8.598;2023-11-19T00:19:53;0.45;;;0.45;;
32146;SDS011;32190;49.112;8.598;2023-11-19T00:25:44;0.30;;;0.30;;
32146;SDS011;32190;49.112;8.598;2023-11-19T00:31:35;0.20;;;0.20;;
32146;SDS011;32190;49.112;8.598;2023-11-19T00:37:26;0.30;;;0.30;;
32146;SDS011;32190;49.112;8.598;2023-11-19T00:43:16;0.45;;;0.45;;
32146;SDS011;32190;49.112;8.598;2023-11-19T00:49:08;0.20;;;0.20;;
32146;SDS011;32190;49.112;8.598;2023-11-19T00:54:58;0.30;;;0.30;;
32146;SDS011;32190;49.112;8.598;2023-11-19T01:00:49;0.60;;;0.30;;
32146;SDS011;32190;49.112;8.598;2023-11-19T01:06:40;0.20;;;0.20;;
32146;SDS011;32190;49.112;8.598;2023-11-19T01:12:32;0.45;;;0.30;;
32146;SDS011;32190;49.112;8.598;2023-11-19T01:18:22;0.20;;;0.20;;
32146;SDS011;32190;49.112;8.598;2023-11-19T01:24:13;0.30;;;0.30;;
32146;SDS011;32190;49.112;8.598;2023-11-19T01:30:04;0.20;;;0.20;;
32146;SDS011;32190;49.112;8.598;2023-11-19T01:35:56;0.28;;;0.28;;
32146;SDS011;32190;49.112;8.598;2023-11-19T01:41:48;0.20;;;0.20;;
32146;SDS011;32190;49.112;8.598;2023-11-19T01:47:39;0.30;;;0.30;;
32146;SDS011;32190;49.112;8.598;2023-11-19T01:53:30;0.20;;;0.20;;
32146;SDS011;32190;49.112;8.598;2023-11-19T01:59:23;0.30;;;0.30;;
32146;SDS011;32190;49.112;8.598;2023-11-19T02:05:16;0.47;;;0.20;;
32146;SDS011;32190;49.112;8.598;2023-11-19T02:11:07;0.30;;;0.30;;
32146;SDS011;32190;49.112;8.598;2023-11-19T02:16:58;0.30;;;0.30;;
32146;SDS011;32190;49.112;8.598;2023-11-19T02:22:49;0.20;;;0.20;;
32146;SDS011;32190;49.112;8.598;2023-11-19T02:28:41;0.80;;;0.20;;
32146;SDS011;32190;49.112;8.598;2023-11-19T02:34:32;0.40;;;0.40;;
32146;SDS011;32190;49.112;8.598;2023-11-19T02:40:23;0.20;;;0.20;;
32146;SDS011;32190;49.112;8.598;2023-11-19T02:46:14;0.20;;;0.20;;
32146;SDS011;32190;49.112;8.598;2023-11-19T02:52:07;0.20;;;0.20;;
32146;SDS011;32190;49.112;8.598;2023-11-19T02:58:00;0.50;;;0.30;;
32146;SDS011;32190;49.112;8.598;2023-11-19T03:03:56;0.30;;;0.30;;
32146;SDS011;32190;49.112;8.598;2023-11-19T03:09:48;0.77;;;0.30;;
32146;SDS011;32190;49.112;8.598;2023-11-19T03:15:39;0.20;;;0.20;;
32146;SDS011;32190;49.112;8.598;2023-11-19T03:21:30;0.30;;;0.30;;
32146;SDS011;32190;49.112;8.598;2023-11-19T03:27:21;0.40;;;0.40;;
32146;SDS011;32190;49.112;8.598;2023-11-19T03:33:12;0.30;;;0.30;;
32146;SDS011;32190;49.112;8.598;2023-11-19T03:39:02;0.20;;;0.20;;
32146;SDS011;32190;49.112;8.598;2023-11-19T03:44:53;0.30;;;0.30;;
32146;SDS011;32190;49.112;8.598;2023-11-19T03:50:44;0.28;;;0.28;;
32146;SDS011;32190;49.112;8.598;2023-11-19T03:56:34;0.25;;;0.25;;
32146;SDS011;32190;49.112;8.598;2023-11-19T04:02:25;0.28;;;0.28;;
32146;SDS011;32190;49.112;8.598;2023-11-19T04:08:19;0.55;;;0.30;;
32146;SDS011;32190;49.112;8.598;2023-11-19T04:14:09;0.52;;;0.50;;
32146;SDS011;32190;49.112;8.598;2023-11-19T04:20:00;0.20;;;0.20;;
32146;SDS011;32190;49.112;8.598;2023-11-19T04:25:50;0.35;;;0.35;;
32146;SDS011;32190;49.112;8.598;2023-11-19T04:31:41;2.92;;;0.40;;
32146;SDS011;32190;49.112;8.598;2023-11-19T04:37:32;0.40;;;0.40;;
32146;SDS011;32190;49.112;8.598;2023-11-19T04:43:22;0.30;;;0.30;;
32146;SDS011;32190;49.112;8.598;2023-11-19T04:49:13;0.40;;;0.40;;
32146;SDS011;32190;49.112;8.598;2023-11-19T04:55:04;0.50;;;0.50;;
32146;SDS011;32190;49.112;8.598;2023-11-19T05:00:55;0.40;;;0.40;;
32146;SDS011;32190;49.112;8.598;2023-11-19T05:06:46;0.38;;;0.38;;
32146;SDS011;32190;49.112;8.598;2023-11-19T05:12:37;0.30;;;0.30;;
32146;SDS011;32190;49.112;8.598;2023-11-19T05:18:29;0.30;;;0.30;;
32146;SDS011;32190;49.112;8.598;2023-11-19T05:24:19;0.40;;;0.30;;
32146;SDS011;32190;49.112;8.598;2023-11-19T05:30:10;0.30;;;0.30;;
32146;SDS011;32190;49.112;8.598;2023-11-19T05:36:01;1.65;;;0.57;;
32146;SDS011;32190;49.112;8.598;2023-11-19T05:41:53;1.48;;;0.30;;
32146;SDS011;32190;49.112;8.598;2023-11-19T05:47:44;0.40;;;0.40;;
32146;SDS011;32190;49.112;8.598;2023-11-19T05:53:34;0.30;;;0.30;;
32146;SDS011;32190;49.112;8.598;2023-11-19T05:59:25;0.28;;;0.28;;
32146;SDS011;32190;49.112;8.598;2023-11-19T06:05:16;0.28;;;0.28;;
32146;SDS011;32190;49.112;8.598;2023-11-19T06:11:06;0.30;;;0.30;;
32146;SDS011;32190;49.112;8.598;2023-11-19T06:16:57;0.30;;;0.30;;
32146;SDS011;32190;49.112;8.598;2023-11-19T06:22:47;0.70;;;0.20;;
32146;SDS011;32190;49.112;8.598;2023-11-19T06:28:38;1.73;;;0.52;;
32146;SDS011;32190;49.112;8.598;2023-11-19T06:34:28;0.20;;;0.20;;
32146;SDS011;32190;49.112;8.598;2023-11-19T06:40:19;0.30;;;0.30;;
32146;SDS011;32190;49.112;8.598;2023-11-19T06:46:16;0.20;;;0.20;;
32146;SDS011;32190;49.112;8.598;2023-11-19T06:52:07;1.27;;;0.20;;
32146;SDS011;32190;49.112;8.598;2023-11-19T06:57:59;0.22;;;0.22;;
32146;SDS011;32190;49.112;8.598;2023-11-19T07:03:52;0.40;;;0.40;;
32146;SDS011;32190;49.112;8.598;2023-11-19T07:09:42;0.20;;;0.20;;
32146;SDS011;32190;49.112;8.598;2023-11-19T07:15:33;0.30;;;0.30;;
32146;SDS011;32190;49.112;8.598;2023-11-19T07:21:24;0.43;;;0.40;;
32146;SDS011;32190;49.112;8.598;2023-11-19T07:27:15;0.20;;;0.20;;
32146;SDS011;32190;49.112;8.598;2023-11-19T07:33:05;0.35;;;0.30;;
32146;SDS011;32190;49.112;8.598;2023-11-19T07:38:56;0.30;;;0.20;;
32146;SDS011;32190;49.112;8.598;2023-11-19T07:44:47;0.20;;;0.20;;
32146;SDS011;32190;49.112;8.598;2023-11-19T07:50:38;0.20;;;0.20;;
32146;SDS011;32190;49.112;8.598;2023-11-19T07:56:31;0.22;;;0.22;;
32146;SDS011;32190;49.112;8.598;2023-11-19T08:02:24;0.30;;;0.30;;
32146;SDS011;32190;49.112;8.598;2023-11-19T08:08:15;0.15;;;0.15;;
32146;SDS011;32190;49.112;8.598;2023-11-19T08:14:05;0.20;;;0.20;;
32146;SDS011;32190;49.112;8.598;2023-11-19T08:19:56;1.55;;;0.82;;
32146;SDS011;32190;49.112;8.598;2023-11-19T08:25:46;0.28;;;0.20;;
32146;SDS011;32190;49.112;8.598;2023-11-19T08:31:37;0.20;;;0.20;;
32146;SDS011;32190;49.112;8.598;2023-11-19T08:37:27;0.20;;;0.20;;
32146;SDS011;32190;49.112;8.598;2023-11-19T08:43:18;0.30;;;0.30;;
32146;SDS011;32190;49.112;8.598;2023-11-19T08:49:09;0.28;;;0.28;;
32146;SDS011;32190;49.112;8.598;2023-11-19T08:54:59;0.75;;;0.38;;
32146;SDS011;32190;49.112;8.598;2023-11-19T09:00:50;1.23;;;0.30;;
32146;SDS011;32190;49.112;8.598;2023-11-19T09:06:40;0.55;;;0.20;;
32146;SDS011;32190;49.112;8.598;2023-11-19T09:12:31;0.30;;;0.30;;
32146;SDS011;32190;49.112;8.598;2023-11-19T09:18:21;0.20;;;0.20;;
32146;SDS011;32190;49.112;8.598;2023-11-19T09:24:12;1.33;;;0.30;;
32146;SDS011;32190;49.112;8.598;2023-11-19T09:30:03;0.28;;;0.28;;
32146;SDS011;32190;49.112;8.598;2023-11-19T09:35:54;0.28;;;0.28;;
32146;SDS011;32190;49.112;8.598;2023-11-19T09:41:45;0.30;;;0.30;;
32146;SDS011;32190;49.112;8.598;2023-11-19T09:47:36;0.30;;;0.30;;
32146;SDS011;32190;49.112;8.598;2023-11-19T09:53:26;0.20;;;0.20;;
32146;SDS011;32190;49.112;8.598;2023-11-19T09:59:17;0.28;;;0.28;;
32146;SDS011;32190;49.112;8.598;2023-11-19T10:05:08;0.25;;;0.25;;
32146;SDS011;32190;49.112;8.598;2023-11-19T10:11:00;0.32;;;0.30;;
32146;SDS011;32190;49.112;8.598;2023-11-19T10:16:50;1.55;;;0.43;;
32146;SDS011;32190;49.112;8.598;2023-11-19T10:22:41;0.30;;;0.30;;
32146;SDS011;32190;49.112;8.598;2023-11-19T10:28:38;0.30;;;0.30;;
32146;SDS011;32190;49.112;8.598;2023-11-19T10:34:30;0.30;;;0.30;;
32146;SDS011;32190;49.112;8.598;2023-11-19T10:40:21;0.32;;;0.32;;
32146;SDS011;32190;49.112;8.598;2023-11-19T10:46:12;0.30;;;0.30;;
32146;SDS011;32190;49.112;8.598;2023-11-19T10:52:03;1.65;;;0.30;;
32146;SDS011;32190;49.112;8.598;2023-11-19T10:57:59;0.40;;;0.40;;
32146;SDS011;32190;49.112;8.598;2023-11-19T11:03:55;0.98;;;0.40;;
32146;SDS011;32190;49.112;8.598;2023-11-19T11:09:49;0.98;;;0.50;;
32146;SDS011;32190;49.112;8.598;2023-11-19T11:15:41;0.73;;;0.40;;
32146;SDS011;32190;49.112;8.598;2023-11-19T11:21:32;0.45;;;0.32;;
32146;SDS011;32190;49.112;8.598;2023-11-19T11:27:28;0.40;;;0.40;;
32146;SDS011;32190;49.112;8.598;2023-11-19T11:40:02;0.20;;;0.20;;
32146;SDS011;32190;49.112;8.598;2023-11-19T11:46:00;0.40;;;0.40;;
32146;SDS011;32190;49.112;8.598;2023-11-19T11:57:47;0.40;;;0.40;;
32146;SDS011;32190;49.112;8.598;2023-11-19T12:03:38;0.52;;;0.40;;
32146;SDS011;32190;49.112;8.598;2023-11-19T12:09:28;0.40;;;0.40;;
32146;SDS011;32190;49.112;8.598;2023-11-19T12:15:19;0.85;;;0.43;;
32146;SDS011;32190;49.112;8.598;2023-11-19T12:21:27;0.65;;;0.40;;
32146;SDS011;32190;49.112;8.598;2023-11-19T12:27:21;1.33;;;0.50;;
32146;SDS011;32190;49.112;8.598;2023-11-19T12:33:12;0.70;;;0.40;;
32146;SDS011;32190;49.112;8.598;2023-11-19T12:39:03;0.40;;;0.40;;
32146;SDS011;32190;49.112;8.598;2023-11-19T12:44:54;0.50;;;0.50;;
32146;SDS011;32190;49.112;8.598;2023-11-19T12:50:58;0.40;;;0.40;;
32146;SDS011;32190;49.112;8.598;2023-11-19T12:56:52;0.32;;;0.32;;
32146;SDS011;32190;49.112;8.598;2023-11-19T13:02:53;1.77;;;0.43;;
32146;SDS011;32190;49.112;8.598;2023-11-19T13:08:48;0.20;;;0.20;;
32146;SDS011;32190;49.112;8.598;2023-11-19T13:14:44;0.95;;;0.30;;
32146;SDS011;32190;49.112;8.598;2023-11-19T13:20:37;0.75;;;0.30;;
32146;SDS011;32190;49.112;8.598;2023-11-19T13:26:28;2.00;;;0.98;;
32146;SDS011;32190;49.112;8.598;2023-11-19T13:32:19;2.30;;;0.63;;
32146;SDS011;32190;49.112;8.598;2023-11-19T13:38:09;0.40;;;0.30;;
32146;SDS011;32190;49.112;8.598;2023-11-19T13:44:00;1.73;;;0.50;;
32146;SDS011;32190;49.112;8.598;2023-11-19T13:49:51;0.68;;;0.40;;
32146;SDS011;32190;49.112;8.598;2023-11-19T13:55:42;1.10;;;0.40;;
32146;SDS011;32190;49.112;8.598;2023-11-19T14:01:33;0.47;;;0.35;;
32146;SDS011;32190;49.112;8.598;2023-11-19T14:07:24;0.68;;;0.35;;
32146;SDS011;32190;49.112;8.598;2023-11-19T14:13:14;0.65;;;0.30;;
32146;SDS011;32190;49.112;8.598;2023-11-19T14:19:05;0.35;;;0.30;;
32146;SDS011;32190;49.112;8.598;2023-11-19T14:24:56;0.60;;;0.40;;
32146;SDS011;32190;49.112;8.598;2023-11-19T14:30:46;0.40;;;0.30;;
32146;SDS011;32190;49.112;8.598;2023-11-19T14:36:43;0.40;;;0.40;;
32146;SDS011;32190;49.112;8.598;2023-11-19T14:42:34;0.40;;;0.35;;
32146;SDS011;32190;49.112;8.598;2023-11-19T14:48:24;1.23;;;0.30;;
32146;SDS011;32190;49.112;8.598;2023-11-19T14:54:15;1.55;;;0.50;;
32146;SDS011;32190;49.112;8.598;2023-11-19T15:00:06;0.20;;;0.20;;
32146;SDS011;32190;49.112;8.598;2023-11-19T15:06:02;0.60;;;0.60;;
32146;SDS011;32190;49.112;8.598;2023-11-19T15:11:53;0.63;;;0.32;;
32146;SDS011;32190;49.112;8.598;2023-11-19T15:17:44;0.70;;;0.30;;
32146;SDS011;32190;49.112;8.598;2023-11-19T15:23:35;0.40;;;0.25;;
32146;SDS011;32190;49.112;8.598;2023-11-19T15:29:27;0.40;;;0.40;;
32146;SDS011;32190;49.112;8.598;2023-11-19T15:35:18;0.40;;;0.40;;
32146;SDS011;32190;49.112;8.598;2023-11-19T15:41:09;0.60;;;0.45;;
32146;SDS011;32190;49.112;8.598;2023-11-19T15:46:59;0.28;;;0.28;;
32146;SDS011;32190;49.112;8.598;2023-11-19T15:52:50;1.00;;;0.30;;
32146;SDS011;32190;49.112;8.598;2023-11-19T15:58:40;1.50;;;0.45;;
32146;SDS011;32190;49.112;8.598;2023-11-19T16:04:31;0.47;;;0.35;;
32146;SDS011;32190;49.112;8.598;2023-11-19T16:10:22;0.30;;;0.30;;
32146;SDS011;32190;49.112;8.598;2023-11-19T16:16:12;0.65;;;0.50;;
32146;SDS011;32190;49.112;8.598;2023-11-19T16:22:03;0.30;;;0.30;;
32146;SDS011;32190;49.112;8.598;2023-11-19T16:27:59;0.30;;;0.30;;
32146;SDS011;32190;49.112;8.598;2023-11-19T16:33:50;0.65;;;0.20;;
32146;SDS011;32190;49.112;8.598;2023-11-19T16:39:41;1.55;;;0.45;;
32146;SDS011;32190;49.112;8.598;2023-11-19T16:45:52;0.55;;;0.30;;
32146;SDS011;32190;49.112;8.598;2023-11-19T16:51:46;0.30;;;0.30;;
32146;SDS011;32190;49.112;8.598;2023-11-19T16:57:39;0.22;;;0.22;;
32146;SDS011;32190;49.112;8.598;2023-11-19T17:03:38;0.38;;;0.30;;
32146;SDS011;32190;49.112;8.598;2023-11-19T17:09:29;0.38;;;0.38;;
32146;SDS011;32190;49.112;8.598;2023-11-19T17:15:19;1.63;;;0.68;;
32146;SDS011;32190;49.112;8.598;2023-11-19T17:21:11;0.60;;;0.40;;
32146;SDS011;32190;49.112;8.598;2023-11-19T17:27:04;1.08;;;0.50;;
32146;SDS011;32190;49.112;8.598;2023-11-19T17:32:54;1.70;;;0.65;;
32146;SDS011;32190;49.112;8.598;2023-11-19T17:38:45;0.77;;;0.75;;
32146;SDS011;32190;49.112;8.598;2023-11-19T17:44:36;0.50;;;0.50;;
32146;SDS011;32190;49.112;8.598;2023-11-19T17:50:26;0.85;;;0.60;;
32146;SDS011;32190;49.112;8.598;2023-11-19T17:56:17;0.73;;;0.60;;
32146;SDS011;32190;49.112;8.598;2023-11-19T18:02:08;2.47;;;0.80;;
32146;SDS011;32190;49.112;8.598;2023-11-19T18:07:58;0.60;;;0.40;;
32146;SDS011;32190;49.112;8.598;2023-11-19T18:13:50;0.50;;;0.50;;
32146;SDS011;32190;49.112;8.598;2023-11-19T18:19:42;2.33;;;0.80;;
32146;SDS011;32190;49.112;8.598;2023-11-19T18:25:38;2.88;;;1.17;;
32146;SDS011;32190;49.112;8.598;2023-11-19T18:31:29;0.63;;;0.50;;
32146;SDS011;32190;49.112;8.598;2023-11-19T18:37:26;1.33;;;0.60;;
32146;SDS011;32190;49.112;8.598;2023-11-19T18:43:23;0.98;;;0.68;;
32146;SDS011;32190;49.112;8.598;2023-11-19T18:49:14;1.15;;;0.63;;
32146;SDS011;32190;49.112;8.598;2023-11-19T18:55:13;1.20;;;0.50;;
32146;SDS011;32190;49.112;8.598;2023-11-19T19:01:04;1.30;;;0.68;;
32146;SDS011;32190;49.112;8.598;2023-11-19T19:07:16;1.33;;;0.43;;
32146;SDS011;32190;49.112;8.598;2023-11-19T19:13:10;2.22;;;0.63;;
32146;SDS011;32190;49.112;8.598;2023-11-19T19:19:02;1.58;;;0.50;;
32146;SDS011;32190;49.112;8.598;2023-11-19T19:24:57;1.02;;;0.40;;
32146;SDS011;32190;49.112;8.598;2023-11-19T19:30:48;0.55;;;0.40;;
32146;SDS011;32190;49.112;8.598;2023-11-19T19:43:00;1.92;;;0.52;;
32146;SDS011;32190;49.112;8.598;2023-11-19T19:48:54;0.75;;;0.40;;
32146;SDS011;32190;49.112;8.598;2023-11-19T19:54:54;1.23;;;0.40;;
32146;SDS011;32190;49.112;8.598;2023-11-19T20:00:51;1.17;;;0.52;;
32146;SDS011;32190;49.112;8.598;2023-11-19T20:06:52;2.67;;;0.70;;
32146;SDS011;32190;49.112;8.598;2023-11-19T20:12:49;1.92;;;0.55;;
32146;SDS011;32190;49.112;8.598;2023-11-19T20:18:47;2.42;;;0.50;;
32146;SDS011;32190;49.112;8.598;2023-11-19T20:24:41;1.92;;;0.50;;
32146;SDS011;32190;49.112;8.598;2023-11-19T20:30:44;2.50;;;0.60;;
32146;SDS011;32190;49.112;8.598;2023-11-19T20:36:41;1.23;;;0.60;;
32146;SDS011;32190;49.112;8.598;2023-11-19T20:42:56;1.10;;;0.50;;
32146;SDS011;32190;49.112;8.598;2023-11-19T20:48:56;2.80;;;0.80;;
32146;SDS011;32190;49.112;8.598;2023-11-19T20:54:55;4.18;;;0.60;;
32146;SDS011;32190;49.112;8.598;2023-11-19T21:00:56;1.60;;;0.90;;
32146;SDS011;32190;49.112;8.598;2023-11-19T21:06:52;3.45;;;0.70;;
32146;SDS011;32190;49.112;8.598;2023-11-19T21:13:00;2.72;;;0.75;;
32146;SDS011;32190;49.112;8.598;2023-11-19T21:18:51;2.22;;;0.60;;
32146;SDS011;32190;49.112;8.598;2023-11-19T21:24:48;1.65;;;0.70;;
32146;SDS011;32190;49.112;8.598;2023-11-19T21:30:40;1.33;;;0.90;;
32146;SDS011;32190;49.112;8.598;2023-11-19T21:36:38;4.95;;;1.00;;
32146;SDS011;32190;49.112;8.598;2023-11-19T21:42:32;3.28;;;0.75;;
32146;SDS011;32190;49.112;8.598;2023-11-19T21:48:29;2.13;;;0.80;;
32146;SDS011;32190;49.112;8.598;2023-11-19T21:54:26;3.80;;;0.82;;
32146;SDS011;32190;49.112;8.598;2023-11-19T22:00:26;2.53;;;0.65;;
32146;SDS011;32190;49.112;8.598;2023-11-19T22:06:36;4.22;;;1.13;;
32146;SDS011;32190;49.112;8.598;2023-11-19T22:12:33;5.07;;;0.88;;
32146;SDS011;32190;49.112;8.598;2023-11-19T22:18:39;4.57;;;1.20;;
32146;SDS011;32190;49.112;8.598;2023-11-19T22:24:35;4.05;;;0.70;;
32146;SDS011;32190;49.112;8.598;2023-11-19T22:30:39;3.67;;;1.00;;
32146;SDS011;32190;49.112;8.598;2023-11-19T22:36:33;3.60;;;0.95;;
32146;SDS011;32190;49.112;8.598;2023-11-19T22:42:31;2.28;;;0.90;;
32146;SDS011;32190;49.112;8.598;2023-11-19T22:48:24;3.95;;;1.20;;
32146;SDS011;32190;49.112;8.598;2023-11-19T22:54:17;2.03;;;1.17;;
32146;SDS011;32190;49.112;8.598;2023-11-19T23:00:16;3.83;;;0.90;;
32146;SDS011;32190;49.112;8.598;2023-11-19T23:06:17;5.10;;;1.20;;
32146;SDS011;32190;49.112;8.598;2023-11-19T23:12:11;4.68;;;1.00;;
32146;SDS011;32190;49.112;8.598;2023-11-19T23:18:08;3.17;;;0.88;;
32146;SDS011;32190;49.112;8.598;2023-11-19T23:24:10;2.28;;;1.13;;
32146;SDS011;32190;49.112;8.598;2023-11-19T23:30:19;2.17;;;0.70;;
32146;SDS011;32190;49.112;8.598;2023-11-19T23:36:20;2.33;;;0.80;;
32146;SDS011;32190;49.112;8.598;2023-11-19T23:42:35;1.13;;;0.80;;
32146;SDS011;32190;49.112;8.598;2023-11-19T23:48:26;4.00;;;0.85;;
32146;SDS011;32190;49.112;8.598;2023-11-19T23:54:31;0.70;;;0.55;;
